»·PEaware :: TCX124 EGCC-KLAS

TCX124 :: EGCC-KLAS

FLIGHT INFORMATION

Flight Status: Arrived
Operator:
Thomas Cook Airlines
More flights by this operator :: More flights under this callsign
Pilot: Anonymous 3069 (3069)
Aircraft: AIRBUS A330-200
(A332)
More flights by this aircraft type
Origin: EGCC Manchester
United Kingdom
Destination: KLAS McCarran Intl
United States
More flights between these airports :: More routes between these airports
Route: +N0489F360 POL UP18 ABKAT UL613 FINDO UN610 STN UN601 AKIVO UP60 ATSIX/M082F360 DCT 57STN DCT ALDAN DCT GIMLI DCT 65N030W/M082F380 DCT SF DCT YFB/N0481F380 DCT 62N080W/N0477F400 59N090W 53N100W 50N103W 49N104W DCT MLS DCT SHR DCT BOY DCT FBR DCT MLF LUXOR2
File this flight plan on PilotEdge
Remarks: PBN / A1B1C1D1L1O1S1 NAV / RNVD1E2A1 DOF / 160701 REG / GMDMB EET / EGPX0019 EGGX0107 BIRD0119 GIMLI0214 65N030W0224 BGGL0238 SF0330 CZEG0354 CZUL0410 CZWG0510 KZLC0728 KZLA0919 RVR / 75 PER / D RALT / BIKF BGSF CYWG
Altitude:
(Current/Filed)
36,000ft
Speed:
(Current/Filed)
489kts
Departed: 01-Jul-16 01:21 AM
Arrived: 01-Jul-16 11:03 AM
Distance/Time
Traveled:
4406nm/9:42
Distance/Time
To Go:
Arrived

Flight Plot

Page will automatically refresh every two minutes.


Map Options




Map Legend


Flown Route
Filed Route
Departure Airport
Arrival Airport
Navaid (VOR, NDB)
Fix

Horizontal Profiles

Position Reports

Time Latitude Longitude Heading Altitude Ground
Speed
01-Jul-16 00:51 53.362846 -2.279085 138 268ft 0kts
01-Jul-16 00:52 53.362846 -2.279085 138 268ft 0kts
01-Jul-16 00:53 53.362846 -2.279085 138 268ft 0kts
01-Jul-16 00:54 53.362846 -2.279085 138 268ft 0kts
01-Jul-16 00:55 53.362846 -2.279085 138 268ft 0kts
01-Jul-16 00:56 53.362846 -2.279085 138 268ft 0kts
01-Jul-16 00:57 53.362846 -2.279085 138 268ft 0kts
01-Jul-16 00:58 53.362846 -2.279085 138 268ft 0kts
01-Jul-16 00:59 53.362846 -2.279085 138 268ft 0kts
01-Jul-16 01:00 53.362846 -2.279085 138 268ft 0kts
01-Jul-16 01:01 53.362846 -2.279085 138 268ft 0kts
01-Jul-16 01:02 53.362846 -2.279085 138 268ft 0kts
01-Jul-16 01:03 53.362846 -2.279085 138 268ft 0kts
01-Jul-16 01:04 53.362846 -2.279085 138 268ft 0kts
01-Jul-16 01:05 53.362845 -2.279085 138 268ft 0kts
01-Jul-16 01:06 53.362884 -2.279143 138 268ft 0kts
01-Jul-16 01:07 53.363453 -2.279816 165 268ft 0kts
01-Jul-16 01:08 53.363753 -2.279593 227 268ft 0kts
01-Jul-16 01:09 53.363753 -2.279593 227 268ft 0kts
01-Jul-16 01:10 53.363753 -2.279593 227 268ft 0kts
01-Jul-16 01:11 53.363674 -2.279741 228 268ft 3kts
01-Jul-16 01:12 53.361587 -2.279992 136 268ft 13kts
01-Jul-16 01:13 53.357824 -2.276876 146 268ft 17kts
01-Jul-16 01:14 53.357841 -2.271104 50 268ft 17kts
01-Jul-16 01:15 53.360844 -2.264350 50 268ft 18kts
01-Jul-16 01:16 53.362349 -2.257511 183 268ft 12kts
01-Jul-16 01:17 53.350221 -2.282317 228 269ft 157kts
01-Jul-16 01:18 53.322466 -2.336489 241 1855ft 161kts
01-Jul-16 01:19 53.344623 -2.401678 334 2434ft 216kts
01-Jul-16 01:20 53.410350 -2.443798 337 3362ft 271kts
01-Jul-16 01:21 53.483018 -2.447213 35 5411ft 295kts
01-Jul-16 01:22 53.549115 -2.362796 35 7346ft 304kts
01-Jul-16 01:23 53.616430 -2.273818 35 9212ft 313kts
01-Jul-16 01:24 53.687731 -2.178666 35 10405ft 349kts
01-Jul-16 01:25 53.775190 -2.096055 5 11335ft 382kts
01-Jul-16 01:26 53.884912 -2.060603 5 12854ft 411kts
01-Jul-16 01:27 53.999687 -2.025339 5 14711ft 427kts
01-Jul-16 01:28 54.117231 -1.989858 359 16485ft 438kts
01-Jul-16 01:29 54.206089 -2.039186 324 17830ft 416kts
01-Jul-16 01:30 54.308017 -2.136824 321 19525ft 424kts
01-Jul-16 01:31 54.411477 -2.239040 321 21050ft 435kts
01-Jul-16 01:32 54.517123 -2.344171 320 22448ft 446kts
01-Jul-16 01:33 54.625708 -2.452895 319 23756ft 457kts
01-Jul-16 01:34 54.736068 -2.564085 319 25038ft 465kts
01-Jul-16 01:35 54.848250 -2.677522 320 26269ft 473kts
01-Jul-16 01:36 54.962574 -2.793581 320 27403ft 480kts
01-Jul-16 01:37 55.078270 -2.912420 320 28457ft 488kts
01-Jul-16 01:38 55.194519 -3.032483 320 29623ft 489kts
01-Jul-16 01:39 55.311153 -3.154039 321 30675ft 490kts
01-Jul-16 01:40 55.427443 -3.275994 322 31666ft 490kts
01-Jul-16 01:41 55.555372 -3.357729 348 32432ft 515kts
01-Jul-16 01:42 55.698060 -3.378152 350 33259ft 515kts
01-Jul-16 01:43 55.840466 -3.396306 351 34099ft 512kts
01-Jul-16 01:44 55.982129 -3.414440 351 34699ft 512kts
01-Jul-16 01:45 56.123201 -3.432629 352 35245ft 512kts
01-Jul-16 01:46 56.263054 -3.450415 352 35656ft 507kts
01-Jul-16 01:47 56.396779 -3.508207 320 35663ft 492kts
01-Jul-16 01:48 56.505643 -3.654342 317 35644ft 490kts
01-Jul-16 01:49 56.612941 -3.803624 317 35643ft 489kts
01-Jul-16 01:50 56.720195 -3.955256 317 35644ft 489kts
01-Jul-16 01:51 56.827418 -4.108027 318 35645ft 492kts
01-Jul-16 01:52 56.934581 -4.262681 318 35590ft 492kts
01-Jul-16 01:53 57.041496 -4.417533 318 35587ft 492kts
01-Jul-16 01:54 57.148018 -4.572647 318 35588ft 492kts
01-Jul-16 01:55 57.254546 -4.728021 317 35590ft 491kts
01-Jul-16 01:56 57.361621 -4.886289 318 35591ft 493kts
01-Jul-16 01:57 57.467904 -5.045722 318 35591ft 493kts
01-Jul-16 01:58 57.574627 -5.206162 318 35590ft 493kts
01-Jul-16 01:59 57.680833 -5.367041 318 35583ft 493kts
01-Jul-16 02:00 57.786871 -5.528941 318 35568ft 495kts
01-Jul-16 02:01 57.893116 -5.691862 318 35563ft 495kts
01-Jul-16 02:02 57.999398 -5.855931 317 35562ft 494kts
01-Jul-16 02:03 58.105002 -6.020974 317 35563ft 494kts
01-Jul-16 02:04 58.210646 -6.187510 316 35562ft 493kts
01-Jul-16 02:05 58.310423 -6.365189 315 35564ft 494kts
01-Jul-16 02:06 58.411037 -6.543679 315 35564ft 494kts
01-Jul-16 02:07 58.511139 -6.721635 314 35564ft 494kts
01-Jul-16 02:08 58.611108 -6.901490 314 35564ft 493kts
01-Jul-16 02:09 58.710615 -7.082345 314 35563ft 493kts
01-Jul-16 02:10 58.810076 -7.264643 315 35563ft 494kts
01-Jul-16 02:11 58.909123 -7.447686 315 35563ft 493kts
01-Jul-16 02:12 59.007726 -7.631442 315 35563ft 493kts
01-Jul-16 02:13 59.106447 -7.815590 314 35563ft 492kts
01-Jul-16 02:14 59.204567 -8.001197 314 35563ft 492kts
01-Jul-16 02:15 59.302556 -8.188473 314 35563ft 493kts
01-Jul-16 02:16 59.400067 -8.376430 314 35563ft 492kts
01-Jul-16 02:17 59.497230 -8.565325 314 35563ft 492kts
01-Jul-16 02:18 59.594322 -8.754434 313 35563ft 492kts
01-Jul-16 02:19 59.691010 -8.945411 313 35563ft 491kts
01-Jul-16 02:20 59.786950 -9.136798 314 35564ft 491kts
01-Jul-16 02:21 59.883082 -9.330243 314 35564ft 490kts
01-Jul-16 02:22 59.965672 -9.541095 282 35532ft 487kts
01-Jul-16 02:23 59.986615 -9.807383 277 35479ft 486kts
01-Jul-16 02:24 60.027320 -10.060207 307 35499ft 490kts
01-Jul-16 02:25 60.111660 -10.272783 308 35486ft 488kts
01-Jul-16 02:26 60.197346 -10.484290 308 35482ft 488kts
01-Jul-16 02:27 60.282617 -10.696272 308 35481ft 488kts
01-Jul-16 02:28 60.367723 -10.909090 308 35482ft 487kts
01-Jul-16 02:29 60.437842 -11.086918 308 35482ft 487kts
01-Jul-16 02:30 60.549898 -11.374023 308 35482ft 486kts
01-Jul-16 02:31 60.605453 -11.517697 308 35482ft 486kts
01-Jul-16 02:32 60.702709 -11.769827 307 35482ft 486kts
01-Jul-16 02:33 60.771880 -11.951666 307 35482ft 485kts
01-Jul-16 02:34 60.853984 -12.169704 307 35482ft 484kts
01-Jul-16 02:35 60.935846 -12.389191 307 35482ft 483kts
01-Jul-16 02:36 61.016377 -12.610299 305 35483ft 482kts
01-Jul-16 02:37 61.096315 -12.831803 306 35483ft 482kts
01-Jul-16 02:38 61.176427 -13.054719 306 35482ft 482kts
01-Jul-16 02:39 61.255803 -13.278162 306 35482ft 482kts
01-Jul-16 02:40 61.335186 -13.503829 306 35482ft 484kts
01-Jul-16 02:41 61.415155 -13.732104 306 35529ft 489kts
01-Jul-16 02:42 61.494890 -13.962611 306 35539ft 489kts
01-Jul-16 02:43 61.573848 -14.193834 306 35539ft 488kts
01-Jul-16 02:44 61.652285 -14.425881 306 35537ft 487kts
01-Jul-16 02:45 61.730357 -14.659187 305 35536ft 486kts
01-Jul-16 02:46 61.808197 -14.892163 305 35536ft 486kts
01-Jul-16 02:47 61.885279 -15.127166 305 35536ft 486kts
01-Jul-16 02:48 61.961861 -15.363136 305 35536ft 485kts
01-Jul-16 02:49 62.037904 -15.599866 305 35536ft 485kts
01-Jul-16 02:50 62.113910 -15.836916 305 35536ft 484kts
01-Jul-16 02:51 62.189225 -16.075749 305 35536ft 484kts
01-Jul-16 02:52 62.263816 -16.315335 305 35536ft 483kts
01-Jul-16 02:53 62.338055 -16.556276 305 35552ft 485kts
01-Jul-16 02:54 62.412176 -16.797528 304 35562ft 484kts
01-Jul-16 02:55 62.485737 -17.041059 304 35564ft 484kts
01-Jul-16 02:56 62.558612 -17.285270 304 35564ft 483kts
01-Jul-16 02:57 62.631095 -17.530797 304 35564ft 483kts
01-Jul-16 02:58 62.703349 -17.776355 304 35563ft 483kts
01-Jul-16 02:59 62.775014 -18.023988 303 35563ft 484kts
01-Jul-16 03:00 62.846305 -18.273492 303 35563ft 484kts
01-Jul-16 03:01 62.916816 -18.523033 303 35563ft 483kts
01-Jul-16 03:02 62.986479 -18.775553 296 35559ft 484kts
01-Jul-16 03:03 63.047130 -19.038818 299 35558ft 483kts
01-Jul-16 03:04 63.109412 -19.298990 299 35563ft 482kts
01-Jul-16 03:05 63.171541 -19.560942 299 35564ft 482kts
01-Jul-16 03:06 63.233370 -19.822815 299 35564ft 482kts
01-Jul-16 03:07 63.294791 -20.088280 299 35564ft 485kts
01-Jul-16 03:08 63.355748 -20.355377 299 35563ft 485kts
01-Jul-16 03:09 63.416223 -20.623688 299 35564ft 485kts
01-Jul-16 03:10 63.476601 -20.892193 298 35564ft 485kts
01-Jul-16 03:11 63.536182 -21.163123 298 35564ft 485kts
01-Jul-16 03:12 63.595180 -21.435040 298 35563ft 485kts
01-Jul-16 03:13 63.653300 -21.705618 297 35595ft 485kts
01-Jul-16 03:14 63.711670 -21.979436 297 35590ft 484kts
01-Jul-16 03:15 63.769116 -22.254649 297 35590ft 487kts
01-Jul-16 03:16 63.826374 -22.532713 297 35590ft 487kts
01-Jul-16 03:17 63.883320 -22.810327 296 35590ft 486kts
01-Jul-16 03:18 63.939429 -23.089738 296 35590ft 486kts
01-Jul-16 03:19 63.994933 -23.370441 296 35590ft 485kts
01-Jul-16 03:20 64.049699 -23.651286 295 35590ft 485kts
01-Jul-16 03:21 64.104216 -23.931498 295 35590ft 484kts
01-Jul-16 03:22 64.158013 -24.214332 295 35590ft 484kts
01-Jul-16 03:23 64.211050 -24.497941 295 35590ft 484kts
01-Jul-16 03:24 64.264000 -24.782505 294 35591ft 485kts
01-Jul-16 03:25 64.316131 -25.068587 294 35590ft 485kts
01-Jul-16 03:26 64.367571 -25.355827 294 35590ft 485kts
01-Jul-16 03:27 64.418336 -25.643522 294 35590ft 485kts
01-Jul-16 03:28 64.469140 -25.932252 293 35590ft 485kts
01-Jul-16 03:29 64.518902 -26.222629 293 35623ft 485kts
01-Jul-16 03:30 64.568165 -26.514710 293 35618ft 485kts
01-Jul-16 03:31 64.617331 -26.807706 292 35616ft 485kts
01-Jul-16 03:32 64.657570 -27.107626 288 35614ft 486kts
01-Jul-16 03:33 64.689473 -27.360057 288 35622ft 487kts
01-Jul-16 03:34 64.734367 -27.713808 288 35615ft 487kts
01-Jul-16 03:35 64.772645 -28.019006 288 35617ft 488kts
01-Jul-16 03:36 64.803679 -28.273818 287 35617ft 488kts
01-Jul-16 03:37 64.840467 -28.581503 287 35617ft 488kts
01-Jul-16 03:38 64.876993 -28.888376 287 35617ft 489kts
01-Jul-16 03:39 64.912530 -29.197415 287 35617ft 489kts
01-Jul-16 03:40 64.947370 -29.507277 287 35617ft 489kts
01-Jul-16 03:41 64.981969 -29.816938 286 35617ft 489kts
01-Jul-16 03:42 65.022078 -30.123089 293 35617ft 487kts
01-Jul-16 03:43 65.072551 -30.420421 294 35671ft 486kts
01-Jul-16 03:44 65.123063 -30.716731 294 35921ft 486kts
01-Jul-16 03:45 65.173359 -31.015375 293 35918ft 485kts
01-Jul-16 03:46 65.222496 -31.314439 293 35915ft 485kts
01-Jul-16 03:47 65.271020 -31.614564 293 35915ft 486kts
01-Jul-16 03:48 65.319508 -31.915545 292 35914ft 485kts
01-Jul-16 03:49 65.366858 -32.217783 292 35914ft 485kts
01-Jul-16 03:50 65.413560 -32.521105 292 35914ft 485kts
01-Jul-16 03:51 65.460108 -32.824964 292 35914ft 484kts
01-Jul-16 03:52 65.505484 -33.129026 291 35915ft 484kts
01-Jul-16 03:53 65.550331 -33.435393 292 35914ft 483kts
01-Jul-16 03:54 65.594635 -33.741130 291 35914ft 483kts
01-Jul-16 03:55 65.638366 -34.048265 291 35914ft 483kts
01-Jul-16 03:56 65.681263 -34.357085 291 35914ft 482kts
01-Jul-16 03:57 65.723293 -34.665119 290 35914ft 482kts
01-Jul-16 03:58 65.765387 -34.974860 291 35914ft 482kts
01-Jul-16 03:59 65.806223 -35.285167 291 35914ft 482kts
01-Jul-16 04:00 65.846477 -35.597052 291 35914ft 481kts
01-Jul-16 04:01 65.886456 -35.908198 290 35913ft 481kts
01-Jul-16 04:02 65.925483 -36.221919 290 35915ft 481kts
01-Jul-16 04:03 65.963632 -36.535073 290 35915ft 480kts
01-Jul-16 04:04 66.001564 -36.848313 289 35915ft 479kts
01-Jul-16 04:05 66.038512 -37.163104 289 35913ft 480kts
01-Jul-16 04:06 66.074699 -37.478662 289 35914ft 479kts
01-Jul-16 04:07 66.110714 -37.794630 289 35915ft 479kts
01-Jul-16 04:08 66.145803 -38.111732 288 35915ft 479kts
01-Jul-16 04:09 66.179997 -38.429419 288 35915ft 478kts
01-Jul-16 04:10 66.213873 -38.748203 288 35915ft 479kts
01-Jul-16 04:11 66.246964 -39.066778 287 35915ft 478kts
01-Jul-16 04:12 66.279208 -39.387108 287 35915ft 478kts
01-Jul-16 04:13 66.310801 -39.707296 287 35915ft 478kts
01-Jul-16 04:14 66.342151 -40.028701 286 35914ft 477kts
01-Jul-16 04:15 66.372336 -40.350606 286 35915ft 477kts
01-Jul-16 04:16 66.401747 -40.672204 285 35913ft 477kts
01-Jul-16 04:17 66.431170 -40.995581 285 35914ft 477kts
01-Jul-16 04:18 66.459276 -41.318742 285 35915ft 476kts
01-Jul-16 04:19 66.486781 -41.643826 285 35914ft 476kts
01-Jul-16 04:20 66.514057 -41.967783 284 35914ft 477kts
01-Jul-16 04:21 66.540196 -42.293582 284 35914ft 476kts
01-Jul-16 04:22 66.565650 -42.620446 284 35914ft 476kts
01-Jul-16 04:23 66.590969 -42.947495 283 35914ft 476kts
01-Jul-16 04:24 66.615054 -43.274970 282 35914ft 476kts
01-Jul-16 04:25 66.638428 -43.603326 282 35914ft 476kts
01-Jul-16 04:26 66.661666 -43.931987 282 36053ft 476kts
01-Jul-16 04:27 66.683704 -44.261316 281 36105ft 476kts
01-Jul-16 04:28 66.705021 -44.591544 281 36105ft 476kts
01-Jul-16 04:29 66.726204 -44.922276 280 36104ft 476kts
01-Jul-16 04:30 66.746174 -45.253287 280 36103ft 476kts
01-Jul-16 04:31 66.765368 -45.584436 280 36103ft 475kts
01-Jul-16 04:32 66.784418 -45.915998 279 36104ft 476kts
01-Jul-16 04:33 66.802329 -46.248975 279 36104ft 476kts
01-Jul-16 04:34 66.819436 -46.581686 279 36104ft 476kts
01-Jul-16 04:35 66.836458 -46.916086 278 36104ft 477kts
01-Jul-16 04:36 66.849677 -47.194529 278 36104ft 477kts
01-Jul-16 04:37 66.867288 -47.585132 278 36103ft 478kts
01-Jul-16 04:38 66.879793 -47.864421 277 36104ft 478kts
01-Jul-16 04:39 66.893683 -48.201362 277 36103ft 478kts
01-Jul-16 04:40 66.906741 -48.538185 277 36103ft 479kts
01-Jul-16 04:41 66.919633 -48.876039 276 36104ft 479kts
01-Jul-16 04:42 66.931353 -49.213674 275 36103ft 479kts
01-Jul-16 04:43 66.942314 -49.553239 275 36103ft 480kts
01-Jul-16 04:44 66.953048 -49.891787 274 36104ft 480kts
01-Jul-16 04:45 66.962656 -50.232500 274 36104ft 481kts
01-Jul-16 04:46 66.971439 -50.572873 274 36104ft 482kts
01-Jul-16 04:47 66.979937 -50.913623 271 36102ft 483kts
01-Jul-16 04:48 66.936676 -51.233555 252 36113ft 483kts
01-Jul-16 04:49 66.898013 -51.562545 253 36108ft 483kts
01-Jul-16 04:50 66.860703 -51.890644 252 36104ft 484kts
01-Jul-16 04:51 66.822245 -52.217499 252 36103ft 484kts
01-Jul-16 04:52 66.782893 -52.544636 252 36104ft 485kts
01-Jul-16 04:53 66.743437 -52.870937 251 36104ft 487kts
01-Jul-16 04:54 66.702721 -53.196692 251 36103ft 487kts
01-Jul-16 04:55 66.661113 -53.522496 251 36104ft 487kts
01-Jul-16 04:56 66.619405 -53.847280 249 36104ft 488kts
01-Jul-16 04:57 66.576599 -54.170511 249 36104ft 488kts
01-Jul-16 04:58 66.532889 -54.493711 249 36103ft 489kts
01-Jul-16 04:59 66.489004 -54.816262 248 36103ft 490kts
01-Jul-16 05:00 66.444011 -55.137721 248 36104ft 489kts
01-Jul-16 05:01 66.398142 -55.458699 248 36104ft 490kts
01-Jul-16 05:02 66.352063 -55.778758 247 36104ft 491kts
01-Jul-16 05:03 66.305117 -56.097079 247 36085ft 491kts
01-Jul-16 05:04 66.257189 -56.415161 247 35980ft 492kts
01-Jul-16 05:05 66.208702 -56.733296 246 35975ft 492kts
01-Jul-16 05:06 66.159705 -57.049940 245 35974ft 494kts
01-Jul-16 05:07 66.109627 -57.365698 245 35973ft 495kts
01-Jul-16 05:08 66.058788 -57.681070 245 35973ft 495kts
01-Jul-16 05:09 66.007750 -57.996213 244 35973ft 496kts
01-Jul-16 05:10 65.955620 -58.309047 244 35974ft 497kts
01-Jul-16 05:11 65.902581 -58.622087 244 35974ft 497kts
01-Jul-16 05:12 65.849350 -58.934385 244 35975ft 498kts
01-Jul-16 05:13 65.795002 -59.245285 244 35974ft 498kts
01-Jul-16 05:14 65.739951 -59.555056 244 35975ft 499kts
01-Jul-16 05:15 65.685151 -59.862033 243 35974ft 498kts
01-Jul-16 05:16 65.629126 -60.168289 243 35974ft 497kts
01-Jul-16 05:17 65.572220 -60.474102 243 35974ft 499kts
01-Jul-16 05:18 65.515126 -60.779033 243 35973ft 499kts
01-Jul-16 05:19 65.456987 -61.083222 242 35973ft 500kts
01-Jul-16 05:20 65.398035 -61.386131 243 36088ft 502kts
01-Jul-16 05:21 65.338445 -61.688175 242 36084ft 501kts
01-Jul-16 05:22 65.278546 -61.990194 242 36083ft 503kts
01-Jul-16 05:23 65.217822 -62.288918 242 36085ft 498kts
01-Jul-16 05:24 65.156609 -62.585708 242 36084ft 499kts
01-Jul-16 05:25 65.095219 -62.882245 242 36082ft 502kts
01-Jul-16 05:26 65.032823 -63.176731 242 36083ft 501kts
01-Jul-16 05:27 64.969471 -63.471225 242 36084ft 503kts
01-Jul-16 05:28 64.906121 -63.763952 241 36084ft 503kts
01-Jul-16 05:29 64.841383 -64.057174 241 36084ft 504kts
01-Jul-16 05:30 64.776054 -64.348576 241 36084ft 506kts
01-Jul-16 05:31 64.710405 -64.637509 242 36083ft 499kts
01-Jul-16 05:32 64.645275 -64.923388 241 36084ft 501kts
01-Jul-16 05:33 64.578735 -65.208762 241 36084ft 501kts
01-Jul-16 05:34 64.511687 -65.492387 241 36084ft 502kts
01-Jul-16 05:35 64.444247 -65.776285 240 36083ft 502kts
01-Jul-16 05:36 64.376109 -66.057895 240 36083ft 503kts
01-Jul-16 05:37 64.307081 -66.338802 241 36092ft 503kts
01-Jul-16 05:38 64.249116 -66.571954 241 36093ft 503kts
01-Jul-16 05:39 64.168877 -66.893388 240 36093ft 498kts
01-Jul-16 05:40 64.110786 -67.121468 240 36093ft 498kts
01-Jul-16 05:41 64.040521 -67.394002 240 36093ft 498kts
01-Jul-16 05:42 63.969809 -67.664958 239 36093ft 498kts
01-Jul-16 05:43 63.899006 -67.935650 239 36093ft 498kts
01-Jul-16 05:44 63.827202 -68.203809 239 36092ft 498kts
01-Jul-16 05:45 63.753608 -68.469434 239 36095ft 498kts
01-Jul-16 05:46 63.712093 -68.760761 257 36095ft 487kts
01-Jul-16 05:47 63.680354 -69.057302 257 36093ft 486kts
01-Jul-16 05:48 63.648170 -69.352716 257 36092ft 486kts
01-Jul-16 05:49 63.615355 -69.647687 257 36093ft 486kts
01-Jul-16 05:50 63.582463 -69.942858 256 36092ft 487kts
01-Jul-16 05:51 63.548445 -70.236668 256 36093ft 487kts
01-Jul-16 05:52 63.513664 -70.530924 256 36100ft 488kts
01-Jul-16 05:53 63.478814 -70.824667 255 36102ft 489kts
01-Jul-16 05:54 63.442882 -71.117820 255 36102ft 489kts
01-Jul-16 05:55 63.406181 -71.410871 255 36102ft 490kts
01-Jul-16 05:56 63.369044 -71.702881 255 36102ft 490kts
01-Jul-16 05:57 63.331559 -71.995177 254 36102ft 491kts
01-Jul-16 05:58 63.292986 -72.286640 254 36102ft 491kts
01-Jul-16 05:59 63.253920 -72.576465 254 36102ft 491kts
01-Jul-16 06:00 63.214923 -72.865031 253 36101ft 487kts
01-Jul-16 06:01 63.175009 -73.151489 253 36102ft 487kts
01-Jul-16 06:02 63.134401 -73.437502 253 36050ft 488kts
01-Jul-16 06:03 63.093387 -73.723347 253 36055ft 488kts
01-Jul-16 06:04 63.051983 -74.008000 252 36056ft 488kts
01-Jul-16 06:05 63.009721 -74.291277 252 36866ft 487kts
01-Jul-16 06:06 62.966795 -74.574246 252 37612ft 486kts
01-Jul-16 06:07 62.924046 -74.855421 251 38047ft 486kts
01-Jul-16 06:08 62.880307 -75.134594 251 38052ft 486kts
01-Jul-16 06:09 62.835820 -75.414136 251 38055ft 486kts
01-Jul-16 06:10 62.790981 -75.692337 251 38056ft 486kts
01-Jul-16 06:11 62.745897 -75.970722 250 38056ft 486kts
01-Jul-16 06:12 62.699954 -76.246874 250 38056ft 484kts
01-Jul-16 06:13 62.653287 -76.523118 250 38056ft 485kts
01-Jul-16 06:14 62.606697 -76.797980 249 38056ft 486kts
01-Jul-16 06:15 62.559091 -77.072461 249 38056ft 486kts
01-Jul-16 06:16 62.510857 -77.345826 249 38056ft 487kts
01-Jul-16 06:17 62.462155 -77.617926 249 38056ft 487kts
01-Jul-16 06:18 62.413260 -77.890725 249 38056ft 487kts
01-Jul-16 06:19 62.363321 -78.162293 248 38056ft 488kts
01-Jul-16 06:20 62.312724 -78.433375 249 38056ft 488kts
01-Jul-16 06:21 62.261808 -78.703295 248 38056ft 488kts
01-Jul-16 06:22 62.210570 -78.973046 248 38012ft 488kts
01-Jul-16 06:23 62.158408 -79.241438 248 38009ft 488kts
01-Jul-16 06:24 62.105694 -79.508984 248 38010ft 489kts
01-Jul-16 06:25 62.052917 -79.775935 247 38010ft 489kts
01-Jul-16 06:26 61.995477 -80.038292 236 38030ft 491kts
01-Jul-16 06:27 61.929978 -80.292431 243 38010ft 491kts
01-Jul-16 06:28 61.867167 -80.549878 244 38008ft 491kts
01-Jul-16 06:29 61.804539 -80.806922 243 38011ft 493kts
01-Jul-16 06:30 61.740806 -81.063404 243 38010ft 491kts
01-Jul-16 06:31 61.676885 -81.317293 243 38011ft 492kts
01-Jul-16 06:32 61.612115 -81.571635 243 38011ft 492kts
01-Jul-16 06:33 61.547581 -81.824624 242 38010ft 493kts
01-Jul-16 06:34 61.482046 -82.076508 242 38010ft 493kts
01-Jul-16 06:35 61.415981 -82.327254 242 38010ft 494kts
01-Jul-16 06:36 61.349210 -82.577872 242 38010ft 494kts
01-Jul-16 06:37 61.282564 -82.827622 241 38010ft 495kts
01-Jul-16 06:38 61.214970 -83.076066 241 38011ft 494kts
01-Jul-16 06:39 61.146895 -83.323232 241 38011ft 495kts
01-Jul-16 06:40 61.078261 -83.569731 241 38011ft 495kts
01-Jul-16 06:41 61.021246 -83.774597 240 38010ft 495kts
01-Jul-16 06:42 60.940093 -84.060551 240 38011ft 495kts
01-Jul-16 06:43 60.881669 -84.263689 240 38009ft 495kts
01-Jul-16 06:44 60.811300 -84.505958 240 38010ft 496kts
01-Jul-16 06:45 60.740600 -84.748858 240 38010ft 496kts
01-Jul-16 06:46 60.669495 -84.989474 240 38010ft 496kts
01-Jul-16 06:47 60.597591 -85.229613 240 38011ft 496kts
01-Jul-16 06:48 60.525128 -85.469082 240 38010ft 497kts
01-Jul-16 06:49 60.452449 -85.707672 239 38011ft 497kts
01-Jul-16 06:50 60.379456 -85.945457 239 38096ft 498kts
01-Jul-16 06:51 60.305921 -86.181119 239 38088ft 498kts
01-Jul-16 06:52 60.231604 -86.416853 239 38085ft 498kts
01-Jul-16 06:53 60.156968 -86.651183 238 38084ft 498kts
01-Jul-16 06:54 60.082308 -86.885490 238 38084ft 499kts
01-Jul-16 06:55 60.006758 -87.118091 238 38084ft 499kts
01-Jul-16 06:56 59.930826 -87.349450 238 38084ft 499kts
01-Jul-16 06:57 59.854270 -87.580085 238 38083ft 501kts
01-Jul-16 06:58 59.777540 -87.811173 237 38107ft 502kts
01-Jul-16 06:59 59.700156 -88.040401 237 38103ft 501kts
01-Jul-16 07:00 59.622252 -88.268620 237 38102ft 501kts
01-Jul-16 07:01 59.543859 -88.496050 237 38102ft 501kts
01-Jul-16 07:02 59.465260 -88.723101 237 38102ft 502kts
01-Jul-16 07:03 59.386205 -88.948993 237 38102ft 502kts
01-Jul-16 07:04 59.306656 -89.173248 237 38103ft 502kts
01-Jul-16 07:05 59.226638 -89.396657 237 38103ft 502kts
01-Jul-16 07:06 59.146220 -89.619064 237 38102ft 502kts
01-Jul-16 07:07 59.065746 -89.841490 236 38102ft 503kts
01-Jul-16 07:08 58.978904 -90.052505 222 38130ft 506kts
01-Jul-16 07:09 58.881748 -90.247075 228 38102ft 505kts
01-Jul-16 07:10 58.785568 -90.445476 228 38101ft 505kts
01-Jul-16 07:11 58.689595 -90.642120 228 38101ft 505kts
01-Jul-16 07:12 58.593454 -90.839124 228 38101ft 506kts
01-Jul-16 07:13 58.496734 -91.033985 227 38102ft 506kts
01-Jul-16 07:14 58.399735 -91.227678 227 38102ft 506kts
01-Jul-16 07:15 58.302027 -91.421131 228 38102ft 506kts
01-Jul-16 07:16 58.204523 -91.612549 228 38103ft 505kts
01-Jul-16 07:17 58.107127 -91.803728 227 38102ft 506kts
01-Jul-16 07:18 58.008695 -91.993888 227 38103ft 506kts
01-Jul-16 07:19 57.910203 -92.182441 227 38103ft 506kts
01-Jul-16 07:20 57.811516 -92.369562 227 38101ft 505kts
01-Jul-16 07:21 57.712206 -92.556534 227 38101ft 505kts
01-Jul-16 07:22 57.613725 -92.741810 226 38101ft 505kts
01-Jul-16 07:23 57.514574 -92.925770 226 38102ft 505kts
01-Jul-16 07:24 57.414799 -93.109101 226 38115ft 505kts
01-Jul-16 07:25 57.314628 -93.291644 226 38120ft 504kts
01-Jul-16 07:26 57.214563 -93.472547 227 38121ft 504kts
01-Jul-16 07:27 57.114453 -93.652094 226 38121ft 504kts
01-Jul-16 07:28 57.014306 -93.831827 226 38121ft 503kts
01-Jul-16 07:29 56.913507 -94.009810 226 38121ft 503kts
01-Jul-16 07:30 56.812700 -94.186128 226 38119ft 503kts
01-Jul-16 07:31 56.711667 -94.361651 226 38119ft 502kts
01-Jul-16 07:32 56.610419 -94.536227 226 38120ft 502kts
01-Jul-16 07:33 56.509470 -94.709882 226 38120ft 502kts
01-Jul-16 07:34 56.408095 -94.882557 225 38120ft 501kts
01-Jul-16 07:35 56.306277 -95.054102 225 38120ft 501kts
01-Jul-16 07:36 56.204167 -95.224790 226 38121ft 500kts
01-Jul-16 07:37 56.102287 -95.393831 226 38120ft 499kts
01-Jul-16 07:38 56.000271 -95.561815 226 38123ft 499kts
01-Jul-16 07:39 55.898515 -95.729309 225 38135ft 500kts
01-Jul-16 07:40 55.796292 -95.895214 225 38136ft 498kts
01-Jul-16 07:41 55.693988 -96.059940 225 38136ft 497kts
01-Jul-16 07:42 55.591590 -96.223615 225 38135ft 497kts
01-Jul-16 07:43 55.489260 -96.385977 225 38136ft 494kts
01-Jul-16 07:44 55.404106 -96.520193 225 38135ft 494kts
01-Jul-16 07:45 55.302611 -96.679408 225 38137ft 494kts
01-Jul-16 07:46 55.200773 -96.838825 225 38166ft 489kts
01-Jul-16 07:47 55.099035 -96.995911 225 38174ft 489kts
01-Jul-16 07:48 54.996851 -97.152523 225 38175ft 489kts
01-Jul-16 07:49 54.895575 -97.306647 225 38177ft 485kts
01-Jul-16 07:50 54.794023 -97.459933 225 38246ft 486kts
01-Jul-16 07:51 54.692234 -97.612697 225 38255ft 484kts
01-Jul-16 07:52 54.591225 -97.764506 224 38257ft 483kts
01-Jul-16 07:53 54.489635 -97.915082 224 38258ft 482kts
01-Jul-16 07:54 54.387931 -98.064643 224 38258ft 482kts
01-Jul-16 07:55 54.286194 -98.213234 224 38257ft 481kts
01-Jul-16 07:56 54.184638 -98.360567 225 38258ft 479kts
01-Jul-16 07:57 54.082933 -98.507143 225 38258ft 479kts
01-Jul-16 07:58 53.981496 -98.652361 224 38258ft 479kts
01-Jul-16 07:59 53.881030 -98.796486 224 38256ft 478kts
01-Jul-16 08:00 53.778991 -98.940579 224 38257ft 478kts
01-Jul-16 08:01 53.677226 -99.083425 225 38305ft 476kts
01-Jul-16 08:02 53.575210 -99.225704 225 38302ft 477kts
01-Jul-16 08:03 53.473253 -99.366983 225 38303ft 475kts
01-Jul-16 08:04 53.371066 -99.507672 225 38303ft 476kts
01-Jul-16 08:05 53.268605 -99.647837 225 38303ft 475kts
01-Jul-16 08:06 53.167462 -99.786546 224 38305ft 473kts
01-Jul-16 08:07 53.065277 -99.924663 224 38304ft 474kts
01-Jul-16 08:08 52.956442 -100.049247 217 38293ft 480kts
01-Jul-16 08:09 52.845455 -100.166631 218 38300ft 479kts
01-Jul-16 08:10 52.734005 -100.285777 218 38303ft 476kts
01-Jul-16 08:11 52.622302 -100.404560 218 38317ft 477kts
01-Jul-16 08:12 52.511100 -100.522091 218 38321ft 477kts
01-Jul-16 08:13 52.406460 -100.632028 218 38322ft 477kts
01-Jul-16 08:14 52.295652 -100.748874 217 38323ft 477kts
01-Jul-16 08:15 52.184766 -100.864093 216 38322ft 472kts
01-Jul-16 08:16 52.073962 -100.978434 216 38324ft 472kts
01-Jul-16 08:17 51.963019 -101.092249 216 38326ft 472kts
01-Jul-16 08:18 51.853381 -101.203942 216 38322ft 472kts
01-Jul-16 08:19 51.758192 -101.300468 216 38323ft 469kts
01-Jul-16 08:20 51.665927 -101.393571 216 38322ft 467kts
01-Jul-16 08:21 51.556163 -101.503762 216 38322ft 467kts
01-Jul-16 08:22 51.446035 -101.613685 216 38286ft 467kts
01-Jul-16 08:23 51.337353 -101.722532 215 38294ft 467kts
01-Jul-16 08:24 51.227232 -101.831343 215 38294ft 463kts
01-Jul-16 08:25 51.126341 -101.930375 215 38295ft 463kts
01-Jul-16 08:26 51.016509 -102.037582 215 38295ft 463kts
01-Jul-16 08:27 50.906958 -102.143915 215 38294ft 463kts
01-Jul-16 08:28 50.798283 -102.248674 215 38293ft 463kts
01-Jul-16 08:29 50.688569 -102.353974 215 38321ft 461kts
01-Jul-16 08:30 50.578955 -102.458621 215 38320ft 461kts
01-Jul-16 08:31 50.469597 -102.562447 215 38320ft 461kts
01-Jul-16 08:32 50.360745 -102.665361 215 38321ft 461kts
01-Jul-16 08:33 50.251254 -102.769126 214 38319ft 460kts
01-Jul-16 08:34 50.142388 -102.870840 214 38320ft 458kts
01-Jul-16 08:35 50.033076 -102.972395 214 38319ft 458kts
01-Jul-16 08:36 49.925375 -103.076738 217 38294ft 456kts
01-Jul-16 08:37 49.820220 -103.183414 217 38302ft 456kts
01-Jul-16 08:38 49.714191 -103.290806 217 38304ft 454kts
01-Jul-16 08:39 49.608504 -103.397342 217 38303ft 455kts
01-Jul-16 08:40 49.502482 -103.503636 217 38303ft 455kts
01-Jul-16 08:41 49.396518 -103.609320 217 38302ft 455kts
01-Jul-16 08:42 49.291483 -103.714463 216 38306ft 455kts
01-Jul-16 08:43 49.185914 -103.818817 217 38314ft 453kts
01-Jul-16 08:44 49.097941 -103.905258 217 38312ft 453kts
01-Jul-16 08:45 48.991678 -104.008177 212 38309ft 455kts
01-Jul-16 08:46 48.879696 -104.094864 211 38311ft 456kts
01-Jul-16 08:47 48.767160 -104.182920 211 38311ft 456kts
01-Jul-16 08:48 48.655151 -104.270267 212 38268ft 453kts
01-Jul-16 08:49 48.543323 -104.357037 212 38273ft 453kts
01-Jul-16 08:50 48.431522 -104.443350 212 38275ft 453kts
01-Jul-16 08:51 48.319248 -104.529598 212 38275ft 453kts
01-Jul-16 08:52 48.207207 -104.615199 213 38243ft 449kts
01-Jul-16 08:53 48.097630 -104.699442 212 38229ft 451kts
01-Jul-16 08:54 47.985827 -104.784216 212 38240ft 449kts
01-Jul-16 08:55 47.875717 -104.867131 212 38205ft 450kts
01-Jul-16 08:56 47.764664 -104.950294 212 38235ft 449kts
01-Jul-16 08:57 47.653351 -105.033334 212 38236ft 446kts
01-Jul-16 08:58 47.542886 -105.115358 212 38239ft 446kts
01-Jul-16 08:59 47.431801 -105.197451 212 38239ft 446kts
01-Jul-16 09:00 47.321044 -105.278915 212 38239ft 445kts
01-Jul-16 09:01 47.210171 -105.360080 212 38239ft 445kts
01-Jul-16 09:02 47.099415 -105.440775 212 38239ft 445kts
01-Jul-16 09:03 46.990776 -105.519556 212 38709ft 445kts
01-Jul-16 09:04 46.880960 -105.598826 212 39393ft 445kts
01-Jul-16 09:05 46.771233 -105.678127 211 39967ft 446kts
01-Jul-16 09:06 46.659985 -105.758094 211 40154ft 446kts
01-Jul-16 09:07 46.548826 -105.837255 211 40156ft 446kts
01-Jul-16 09:08 46.437683 -105.916030 211 40157ft 446kts
01-Jul-16 09:09 46.326501 -105.995198 211 40157ft 445kts
01-Jul-16 09:10 46.216012 -106.076525 211 40157ft 447kts
01-Jul-16 09:11 46.105473 -106.157765 211 40156ft 446kts
01-Jul-16 09:12 45.995073 -106.238564 211 40156ft 447kts
01-Jul-16 09:13 45.885682 -106.318259 211 40156ft 446kts
01-Jul-16 09:14 45.775191 -106.398300 211 40156ft 446kts
01-Jul-16 09:15 45.664347 -106.478343 211 40155ft 447kts
01-Jul-16 09:16 45.553658 -106.557919 211 40168ft 447kts
01-Jul-16 09:17 45.443043 -106.637095 211 40164ft 447kts
01-Jul-16 09:18 45.333137 -106.716253 210 40166ft 447kts
01-Jul-16 09:19 45.221995 -106.795176 210 40165ft 445kts
01-Jul-16 09:20 45.111415 -106.873301 210 40166ft 445kts
01-Jul-16 09:21 45.000373 -106.951394 210 40166ft 445kts
01-Jul-16 09:22 44.891186 -107.027851 210 40166ft 445kts
01-Jul-16 09:23 44.784937 -107.114294 217 40169ft 441kts
01-Jul-16 09:24 44.682892 -107.207794 217 40165ft 437kts
01-Jul-16 09:25 44.581036 -107.301071 217 40164ft 438kts
01-Jul-16 09:26 44.479044 -107.394082 217 40164ft 438kts
01-Jul-16 09:27 44.377314 -107.486463 217 40131ft 437kts
01-Jul-16 09:28 44.275018 -107.578974 217 40122ft 438kts
01-Jul-16 09:29 44.174324 -107.669895 217 40133ft 439kts
01-Jul-16 09:30 44.072158 -107.762195 216 40138ft 439kts
01-Jul-16 09:31 43.969645 -107.853761 216 40139ft 439kts
01-Jul-16 09:32 43.867739 -107.944315 216 40139ft 439kts
01-Jul-16 09:33 43.764875 -108.035351 216 40138ft 439kts
01-Jul-16 09:34 43.662805 -108.125374 216 40211ft 437kts
01-Jul-16 09:35 43.560566 -108.215186 216 40431ft 437kts
01-Jul-16 09:36 43.458276 -108.305880 220 40422ft 435kts
01-Jul-16 09:37 43.362579 -108.406265 221 40419ft 434kts
01-Jul-16 09:38 43.266818 -108.507431 221 40282ft 435kts
01-Jul-16 09:39 43.171414 -108.607875 221 40206ft 434kts
01-Jul-16 09:40 43.076883 -108.707806 220 40212ft 434kts
01-Jul-16 09:41 42.981377 -108.807700 220 40186ft 434kts
01-Jul-16 09:42 42.887054 -108.905807 220 40196ft 434kts
01-Jul-16 09:43 42.791359 -109.004808 220 40196ft 434kts
01-Jul-16 09:44 42.695232 -109.104011 220 40193ft 432kts
01-Jul-16 09:45 42.599827 -109.202079 220 40194ft 432kts
01-Jul-16 09:46 42.504481 -109.299700 220 40314ft 434kts
01-Jul-16 09:47 42.408366 -109.397721 220 40389ft 433kts
01-Jul-16 09:48 42.311772 -109.495843 220 40384ft 433kts
01-Jul-16 09:49 42.231717 -109.576884 219 40373ft 433kts
01-Jul-16 09:50 42.136560 -109.673144 219 40379ft 433kts
01-Jul-16 09:51 42.040623 -109.770148 218 40374ft 434kts
01-Jul-16 09:52 41.944024 -109.866840 218 40371ft 433kts
01-Jul-16 09:53 41.851541 -109.958928 218 40365ft 433kts
01-Jul-16 09:54 41.755226 -110.054561 218 40366ft 433kts
01-Jul-16 09:55 41.657949 -110.150816 218 40368ft 434kts
01-Jul-16 09:56 41.561163 -110.246216 218 40368ft 434kts
01-Jul-16 09:57 41.463914 -110.341709 218 40366ft 434kts
01-Jul-16 09:58 41.366302 -110.436178 215 40367ft 436kts
01-Jul-16 09:59 41.266181 -110.525208 216 40365ft 436kts
01-Jul-16 10:00 41.165645 -110.615674 215 40364ft 437kts
01-Jul-16 10:01 41.066842 -110.705030 215 40330ft 437kts
01-Jul-16 10:02 40.966219 -110.795056 215 40337ft 436kts
01-Jul-16 10:03 40.867628 -110.882753 215 40343ft 436kts
01-Jul-16 10:04 40.767335 -110.971638 215 40287ft 437kts
01-Jul-16 10:05 40.666022 -111.061158 214 40204ft 438kts
01-Jul-16 10:06 40.564953 -111.150132 215 40205ft 438kts
01-Jul-16 10:07 40.463596 -111.239029 215 40204ft 438kts
01-Jul-16 10:08 40.362491 -111.327385 214 40201ft 437kts
01-Jul-16 10:09 40.261340 -111.415457 214 40201ft 437kts
01-Jul-16 10:10 40.159750 -111.503583 214 40147ft 439kts
01-Jul-16 10:11 40.058655 -111.590963 214 40137ft 439kts
01-Jul-16 10:12 39.958603 -111.677554 214 40135ft 439kts
01-Jul-16 10:13 39.858310 -111.763938 213 40137ft 438kts
01-Jul-16 10:14 39.756773 -111.850735 214 40141ft 438kts
01-Jul-16 10:15 39.654569 -111.937816 213 40143ft 440kts
01-Jul-16 10:16 39.552319 -112.024622 213 40102ft 440kts
01-Jul-16 10:17 39.450086 -112.111106 213 40110ft 440kts
01-Jul-16 10:18 39.347593 -112.197500 213 40113ft 440kts
01-Jul-16 10:19 39.245143 -112.283556 213 40114ft 438kts
01-Jul-16 10:20 39.142441 -112.369511 213 40112ft 441kts
01-Jul-16 10:21 39.039462 -112.455396 213 40109ft 441kts
01-Jul-16 10:22 38.936493 -112.540973 213 40111ft 441kts
01-Jul-16 10:23 38.835191 -112.624764 213 40128ft 441kts
01-Jul-16 10:24 38.733786 -112.709135 212 40191ft 443kts
01-Jul-16 10:25 38.630422 -112.794262 212 40188ft 442kts
01-Jul-16 10:26 38.527141 -112.878918 212 40186ft 442kts
01-Jul-16 10:27 38.423444 -112.963618 212 40184ft 442kts
01-Jul-16 10:28 38.316958 -113.040539 204 40185ft 443kts
01-Jul-16 10:29 38.205699 -113.106577 205 40189ft 444kts
01-Jul-16 10:30 38.093950 -113.173650 205 40188ft 444kts
01-Jul-16 10:31 37.982599 -113.240303 205 40235ft 443kts
01-Jul-16 10:32 37.873596 -113.305498 206 40234ft 443kts
01-Jul-16 10:33 37.762677 -113.372602 206 40239ft 443kts
01-Jul-16 10:34 37.651584 -113.439707 206 40241ft 445kts
01-Jul-16 10:35 37.541354 -113.506098 206 38646ft 443kts
01-Jul-16 10:36 37.428962 -113.573556 205 35188ft 455kts
01-Jul-16 10:37 37.313210 -113.642782 205 30822ft 478kts
01-Jul-16 10:38 37.194758 -113.714012 205 29846ft 480kts
01-Jul-16 10:39 37.075477 -113.784986 205 28841ft 474kts
01-Jul-16 10:40 36.958177 -113.855580 206 26990ft 463kts
01-Jul-16 10:41 36.845641 -113.923207 206 24708ft 456kts
01-Jul-16 10:42 36.732381 -113.991089 206 22294ft 451kts
01-Jul-16 10:43 36.620634 -114.057868 206 19917ft 444kts
01-Jul-16 10:44 36.539964 -114.165297 239 17593ft 430kts
01-Jul-16 10:45 36.482069 -114.290559 242 15664ft 405kts
01-Jul-16 10:46 36.427922 -114.408577 242 13267ft 397kts
01-Jul-16 10:47 36.359755 -114.505477 210 11654ft 380kts
01-Jul-16 10:48 36.273083 -114.565627 211 10745ft 336kts
01-Jul-16 10:49 36.196243 -114.619229 211 9904ft 297kts
01-Jul-16 10:50 36.132923 -114.663373 210 9732ft 235kts
01-Jul-16 10:51 36.076466 -114.702701 210 8293ft 231kts
01-Jul-16 10:52 36.031165 -114.751557 276 7534ft 221kts
01-Jul-16 10:53 36.052455 -114.822505 291 6809ft 219kts
01-Jul-16 10:54 36.074425 -114.892200 284 5861ft 212kts
01-Jul-16 10:55 36.076405 -114.957912 269 4919ft 176kts
01-Jul-16 10:56 36.076707 -115.013525 270 3961ft 153kts
01-Jul-16 10:57 36.076317 -115.057347 271 3272ft 154kts
01-Jul-16 10:58 36.076389 -115.110708 270 2446ft 165kts
01-Jul-16 10:59 36.076696 -115.150569 308 2154ft 20kts
01-Jul-16 11:00 36.076917 -115.150951 309 2154ft 3kts
01-Jul-16 11:01 36.078584 -115.148604 91 2154ft 21kts
01-Jul-16 11:02 36.078612 -115.141690 7 2154ft 13kts
01-Jul-16 11:03 36.082406 -115.142463 2 2154ft 16kts
01-Jul-16 11:04 36.084195 -115.137519 90 2154ft 17kts
01-Jul-16 11:05 36.085093 -115.135706 0 2154ft 3kts
01-Jul-16 11:06 36.085292 -115.135706 359 2154ft 0kts

Navigation Log

Ident Type
Flight plan parsing failed, navigation log unavailable